Flight Track Log - Related Links

Times and Time Zones

All times are in EDT time to prevent confusion due to time zone crossing. See the SWA1533 flight status page for this flight to view local times or setup timezone preferences in your user account.

Time Position Orientation Groundspeed Altitude Reporting Facility
EDT Latitude Longitude Course Direction KTS MPH feet Rate Location/Type
Sat 02:13:27 PM 37.7500 -122.2833 291° West 190 219 1,800  Level Northern Cal TRACON
Sat 02:13:57 PM 37.7542 -122.2972 291° West 207 238 2,500 2,348 Climbing Oakland Center
Sat 02:14:59 PM 37.8031 -122.3403 325° Northwest 231 266 5,400 2,634 Climbing Oakland Center
Sat 02:16:00 PM 37.8828 -122.3356 North 241 277 7,900 2,459 Climbing Oakland Center
Sat 02:17:01 PM 37.9594 -122.3322 North 270 311 10,400 1,707 Climbing Oakland Center
Sat 02:18:03 PM 38.0469 -122.3278 North 321 369 11,400 1,659 Climbing Oakland Center
Sat 02:19:04 PM 38.1422 -122.3239 North 343 395 13,800 2,311 Climbing Oakland Center
Sat 02:20:05 PM 38.2394 -122.3203 North 350 403 16,100 2,098 Climbing Oakland Center
Sat 02:21:07 PM 38.3403 -122.3156 North 361 415 18,100 1,951 Climbing Oakland Center
Sat 02:22:08 PM 38.4450 -122.3122 North 375 432 20,100 1,967 Climbing Oakland Center
Sat 02:23:09 PM 38.5750 -122.3050 North 390 449 22,100 1,869 Climbing Oakland Center
Sat 02:24:10 PM 38.6831 -122.3014 North 392 451 23,900 1,561 Climbing Oakland Center
Sat 02:25:12 PM 38.7939 -122.2975 North 394 453 25,300 1,366 Climbing Oakland Center
Sat 02:26:13 PM 38.9106 -122.2911 North 414 476 26,700 1,525 Climbing Oakland Center
Sat 02:27:14 PM 39.0256 -122.2847 North 412 474 28,400 1,659 Climbing Oakland Center
Sat 02:28:16 PM 39.1389 -122.2817 North 406 467 30,100 1,512 Climbing Oakland Center
Sat 02:29:17 PM 39.2489 -122.2814 360° North 397 457 31,500 1,230 Climbing Oakland Center
Sat 02:30:18 PM 39.3586 -122.2886 357° North 395 455 32,600 1,073 Climbing Oakland Center
Sat 02:31:20 PM 39.4681 -122.2925 358° North 395 455 33,700 1,220 Climbing Oakland Center
Sat 02:32:21 PM 39.5822 -122.2969 358° North 392 451 35,100 934 Climbing Oakland Center
Sat 02:33:22 PM 39.6889 -122.3028 358° North 387 445 35,600 439 Climbing Oakland Center
Sat 02:34:24 PM 39.7986 -122.3069 358° North 396 456 36,000 195 Climbing Oakland Center
Sat 02:35:25 PM 39.9089 -122.3125 358° North 398 458 36,000  Level Oakland Center
Sat 02:36:27 PM 40.0400 -122.3175 358° North 394 453 36,000  Level Oakland Center
Sat 02:37:28 PM 40.1450 -122.3233 358° North 392 451 36,000  Level Oakland Center
Sat 02:38:29 PM 40.2458 -122.3261 359° North 392 451 36,000  Level Oakland Center
Sat 02:39:31 PM 40.3519 -122.3314 358° North 385 443 36,000  Level Oakland Center
Sat 02:40:32 PM 40.4803 -122.3372 358° North 384 442 36,000  Level Oakland Center
Sat 02:41:33 PM 40.5856 -122.3419 358° North 382 440 36,000  Level Oakland Center
Sat 02:42:35 PM 40.6911 -122.3456 359° North 379 436 36,000  Level Oakland Center
Sat 02:43:36 PM 40.7964 -122.3506 358° North 379 436 36,000  Level Oakland Center
Sat 02:44:37 PM 40.9014 -122.3533 359° North 378 435 36,000  Level Oakland Center
Sat 02:45:39 PM 41.0058 -122.3583 358° North 376 433 36,000  Level Oakland Center
Sat 02:46:40 PM 41.1108 -122.3636 358° North 377 434 36,000  Level Oakland Center
Sat 02:47:41 PM 41.2156 -122.3697 357° North 377 434 36,000  Level Oakland Center
Sat 02:48:43 PM 41.3197 -122.3764 357° North 375 432 36,000  Level Oakland Center
Sat 02:49:22 PM 41.4044 -122.3772 360° North 377 434 36,000  Level Seattle Center
Sat 02:50:23 PM 41.5008 -122.3825 358° North 376 433 36,000  Level Seattle Center
Sat 02:51:23 PM 41.6067 -122.3889 357° North 379 436 36,000  Level Seattle Center
Sat 02:52:24 PM 41.7125 -122.3928 358° North 379 436 36,000  Level Seattle Center
Sat 02:53:25 PM 41.8175 -122.3983 358° North 377 434 36,000  Level Seattle Center
Sat 02:54:26 PM 41.9233 -122.4022 358° North 377 434 36,000  Level Seattle Center
Sat 02:55:27 PM 42.0308 -122.4083 358° North 377 434 36,000  Level Seattle Center
Sat 02:56:28 PM 42.1350 -122.4119 359° North 377 434 36,000  Level Seattle Center
Sat 02:57:28 PM 42.2386 -122.4164 358° North 371 427 36,000  Level Seattle Center
Sat 02:58:29 PM 42.3433 -122.4203 358° North 373 429 36,000  Level Seattle Center
Sat 02:59:30 PM 42.4481 -122.4258 358° North 374 430 36,000  Level Seattle Center
Sat 03:00:31 PM 42.5522 -122.4314 358° North 373 429 36,000  Level Seattle Center
Sat 03:01:32 PM 42.6556 -122.4361 358° North 371 427 36,000  Level Seattle Center
Sat 03:02:33 PM 42.7725 -122.4417 358° North 373 429 36,000  Level Seattle Center
Sat 03:03:34 PM 42.8758 -122.4464 358° North 371 427 36,000  Level Seattle Center
Sat 03:04:35 PM 42.9783 -122.4514 358° North 371 427 36,000  Level Seattle Center
Sat 03:05:35 PM 43.0814 -122.4556 358° North 370 426 36,000  Level Seattle Center
Sat 03:06:36 PM 43.1844 -122.4600 358° North 370 426 36,000  Level Seattle Center
Sat 03:07:37 PM 43.2881 -122.4647 358° North 371 427 36,000  Level Seattle Center
Sat 03:08:38 PM 43.3906 -122.4694 358° North 370 426 36,000  Level Seattle Center
Sat 03:09:39 PM 43.4936 -122.4750 358° North 371 427 36,000  Level Seattle Center
Sat 03:10:40 PM 43.6169 -122.4819 358° North 370 426 36,000  Level Seattle Center
Sat 03:11:40 PM 43.7203 -122.4878 358° North 371 427 36,000  Level Seattle Center
Sat 03:12:41 PM 43.8239 -122.4925 358° North 374 430 36,000  Level Seattle Center
Sat 03:13:42 PM 43.9269 -122.4969 358° North 374 430 36,000  Level Seattle Center
Sat 03:14:43 PM 44.0303 -122.5028 358° North 374 430 36,000  Level Seattle Center
Sat 03:15:44 PM 44.1333 -122.5075 358° North 373 429 36,000  Level Seattle Center
Sat 03:16:45 PM 44.2364 -122.5128 358° North 372 428 36,000  Level Seattle Center
Sat 03:17:46 PM 44.3394 -122.5181 358° North 373 429 36,000  Level Seattle Center
Sat 03:18:47 PM 44.4428 -122.5242 358° North 373 429 36,000  Level Seattle Center
Sat 03:19:48 PM 44.5453 -122.5289 358° North 371 427 36,000  Level Seattle Center
Sat 03:20:49 PM 44.6500 -122.5356 357° North 375 432 36,000  Level Seattle Center
Sat 03:21:49 PM 44.7536 -122.5397 358° North 375 432 36,000  Level Seattle Center
Sat 03:22:50 PM 44.8700 -122.5472 357° North 374 430 36,000  Level Seattle Center
Sat 03:23:51 PM 44.9733 -122.5519 358° North 375 432 36,000  Level Seattle Center
Sat 03:24:52 PM 45.0767 -122.5575 358° North 373 429 36,000  Level Seattle Center
Sat 03:25:53 PM 45.1794 -122.5628 358° North 372 428 36,000  Level Seattle Center
Sat 03:26:54 PM 45.2825 -122.5669 358° North 372 428 36,000  Level Seattle Center
Sat 03:27:55 PM 45.3867 -122.5722 358° North 376 433 36,000  Level Seattle Center
Sat 03:28:56 PM 45.4900 -122.5778 358° North 375 432 36,000  Level Seattle Center
Sat 03:29:57 PM 45.5933 -122.5833 358° North 374 430 36,000  Level Seattle Center
Sat 03:30:57 PM 45.7178 -122.5894 358° North 375 432 36,000  Level Seattle Center
Sat 03:31:58 PM 45.8189 -122.6086 352° North 370 426 36,000  Level Seattle Center
Sat 03:32:59 PM 45.9186 -122.6339 350° North 365 420 36,000  Level Seattle Center
Sat 03:34:00 PM 46.0194 -122.6611 349° North 370 426 36,000  Level Seattle Center
Sat 03:35:01 PM 46.1208 -122.6867 350° North 371 427 36,000 -49 Level Seattle Center
Sat 03:36:02 PM 46.2242 -122.7128 350° North 365 420 35,900 -1,279 Descending Seattle Center
Sat 03:37:03 PM 46.3225 -122.7375 350° North 364 419 33,400 -2,705 Descending Seattle Center
Sat 03:38:04 PM 46.4214 -122.7619 350° North 364 419 30,400 -2,656 Descending Seattle Center
Sat 03:39:05 PM 46.5194 -122.7883 350° North 362 417 28,000 -2,281 Descending Seattle Center
Sat 03:40:05 PM 46.6164 -122.8117 351° North 358 412 25,800 -2,231 Descending Seattle Center
Sat 03:41:06 PM 46.7161 -122.8375 350° North 365 420 23,500 -2,483 Descending Seattle Center
Sat 03:41:32 PM 46.7744 -122.8506 351° North 363 418 22,200 -2,164 Descending Seattle Center
Sat 03:42:07 PM 46.8122 -122.8617 349° North 360 414 21,300 -2,143 Descending Seattle Center
Sat 03:42:28 PM 46.8600 -122.8728 351° North 346 398 20,200 -2,459 Descending Seattle Center
Sat 03:43:08 PM 46.9217 -122.8900 349° North 341 392 18,800 -2,000 Descending Seattle Center
Sat 03:43:28 PM 46.9481 -122.8969 350° North 328 377 18,200 -1,377 Descending Seattle Center
Sat 03:44:09 PM 47.0064 -122.8608 23° Northeast 335 386 17,400 -1,377 Descending Seattle Center
Sat 03:44:29 PM 47.0272 -122.8319 43° Northeast 344 396 16,800 -2,066 Descending Seattle Center
Sat 03:45:10 PM 47.0767 -122.7683 41° Northeast 345 397 15,300 -2,164 Descending Seattle Center
Sat 03:45:30 PM 47.1042 -122.7322 42° Northeast 346 398 14,600 -1,869 Descending Seattle Center
Sat 03:46:11 PM 47.1472 -122.6789 40° Northeast 341 392 13,400 -1,909 Descending Seattle Center
Sat 03:46:36 PM 47.1800 -122.6361 42° Northeast 332 382 12,500 -1,377 Descending Seattle Center
Sat 03:47:12 PM 47.2131 -122.5933 41° Northeast 328 377 12,000 -1,279 Descending Seattle Center
Sat 03:47:37 PM 47.2483 -122.5467 42° Northeast 306 352 11,200 -1,475 Descending Seattle Center
Sat 03:48:13 PM 47.2742 -122.5144 40° Northeast 307 353 10,500 -1,574 Descending Seattle Center
Sat 03:48:38 PM 47.3072 -122.4722 41° Northeast 286 329 9,600 -1,475 Descending Seattle Center
Sat 03:49:14 PM 47.3372 -122.4564 20° North 283 326 9,000 -1,475 Descending Seattle Center
Sat 03:49:39 PM 47.3786 -122.4558 North 257 296 8,100 -1,475 Descending Seattle Center
Sat 03:50:15 PM 47.4100 -122.4542 North 270 311 7,500 -1,475 Descending Seattle Center
Sat 03:50:40 PM 47.4539 -122.4542 360° North 263 303 6,600 -1,900 Descending Seattle Center
Sat 03:51:15 PM 47.4975 -122.4564 358° North 267 307 5,600 -1,612 Descending Seattle Center
Sat 03:51:47 PM 47.5342 -122.4558 North 257 296 4,800 -1,475 Descending Seattle Center
Sat 03:52:16 PM 47.5664 -122.4594 356° North 259 298 4,100 -800 Descending Seattle Center
Sat 03:52:47 PM 47.5994 -122.4594 360° North 237 273 4,000 -98 Descending Seattle Center
Sat 03:53:17 PM 47.6319 -122.4608 358° North 247 284 4,000 -98 Level Seattle Center
Sat 03:53:48 PM 47.6481 -122.4228 58° Northeast 229 264 3,900  Descending Seattle Center
Sat 03:54:18 PM 47.6494 -122.3844 87° East 243 280 4,000 -492 Climbing Seattle Center
Sat 03:54:49 PM 47.6397 -122.3453 110° East 184 212 3,400 -984 Descending Seattle Center
Sat 03:55:19 PM 47.6244 -122.3278 142° Southeast 208 239 3,000 -492 Descending Seattle Center
Sat 03:55:50 PM 47.5947 -122.3175 167° South 174 200 2,900 -295 Descending Seattle Center
Sat 03:56:20 PM 47.5775 -122.3158 176° South 185 213 2,700 -873 Descending Seattle Center
Sat 03:56:45 PM 47.5519 -122.3147 178° South 179 206 2,100 -984 Descending Seattle Center
Sat 03:57:21 PM 47.5294 -122.3172 184° South 177 204 1,700 -700 Descending Seattle Center
Sat 03:57:45 PM 47.5125 -122.3169 179° South 159 183 1,400 -689 Descending Seattle Center
Sat 03:58:22 PM 47.4897 -122.3172 180° South 161 185 1,000 -490 Descending Seattle Center
Sat 03:59:23 PM 47.4489 -122.3183 181° South 147 169 600 -393 Descending Seattle Center

Login

Don't have an account? Register now (free) for customized features, flight alerts, and more!